createdAt,value
2019-02-11T00:00:55.729Z,99351.08
2019-02-11T00:03:25.437Z,99361.57
2019-02-11T00:05:55.165Z,99377.10
2019-02-11T00:08:24.914Z,99387.27
2019-02-11T00:10:54.652Z,99390.03
2019-02-11T00:13:24.392Z,99399.40
2019-02-11T00:15:54.110Z,99401.62
2019-02-11T00:18:24.923Z,99412.01
2019-02-11T00:20:54.666Z,99410.69
2019-02-11T00:23:24.410Z,99419.05
2019-02-11T00:25:54.123Z,99429.92
2019-02-11T00:28:23.864Z,99446.31
2019-02-11T00:30:53.598Z,99456.70
2019-02-11T00:33:23.334Z,99460.56
2019-02-11T00:35:53.048Z,99468.34
2019-02-11T00:38:22.800Z,99471.31
2019-02-11T00:40:52.522Z,99478.52
2019-02-11T00:43:22.266Z,99481.23
2019-02-11T00:45:52.004Z,99492.49
2019-02-11T00:48:21.735Z,99495.14
2019-02-11T00:50:51.471Z,99504.34
2019-02-11T00:53:21.220Z,99511.36
2019-02-11T00:55:50.935Z,99528.55
2019-02-11T00:58:20.674Z,99537.93
2019-02-11T01:00:50.392Z,99543.50
2019-02-11T01:03:20.125Z,99539.31
2019-02-11T01:05:49.889Z,99552.10
2019-02-11T01:08:19.578Z,99553.30
2019-02-11T01:10:49.345Z,99564.89
2019-02-11T01:13:27.221Z,99570.75
2019-02-11T01:15:50.505Z,99577.77
2019-02-11T01:18:20.225Z,99585.41
2019-02-11T01:20:50.039Z,99589.02
2019-02-11T01:23:19.770Z,99587.73
2019-02-11T01:25:49.505Z,99599.42
2019-02-11T01:28:19.227Z,99602.19
2019-02-11T01:30:48.971Z,99604.06
2019-02-11T01:33:18.713Z,99614.27
2019-02-11T01:35:48.415Z,99622.13
2019-02-11T01:38:18.151Z,99626.52
2019-02-11T01:40:47.880Z,99636.57
2019-02-11T01:43:17.613Z,99643.66
2019-02-11T01:45:48.403Z,99646.75
2019-02-11T01:48:18.132Z,99646.02
2019-02-11T01:50:47.843Z,99654.17
2019-02-11T01:53:17.578Z,99657.20
2019-02-11T01:55:47.368Z,99663.55
2019-02-11T01:58:17.112Z,99663.70
2019-02-11T02:00:46.831Z,99669.83
2019-02-11T02:03:16.575Z,99671.70
2019-02-11T02:05:46.289Z,99671.86
2019-02-11T02:08:16.047Z,99674.02
2019-02-11T02:10:45.786Z,99673.56
2019-02-11T02:13:15.532Z,99680.46
2019-02-11T02:15:45.266Z,99688.30
2019-02-11T02:18:14.991Z,99691.72
2019-02-11T02:20:44.726Z,99700.74
2019-02-11T02:23:14.449Z,99704.77
2019-02-11T02:25:44.192Z,99707.29
2019-02-11T02:28:13.904Z,99711.94
2019-02-11T02:30:43.644Z,99708.12
2019-02-11T02:33:13.369Z,99717.86
2019-02-11T02:35:43.108Z,99717.51
2019-02-11T02:38:12.847Z,99720.44
2019-02-11T02:40:42.590Z,99719.61
2019-02-11T02:43:12.302Z,99734.53
2019-02-11T02:45:42.079Z,99723.47
2019-02-11T02:48:11.795Z,99733.44
2019-02-11T02:50:41.514Z,99733.80
2019-02-11T02:53:11.270Z,99740.63
2019-02-11T02:55:41.010Z,99735.08
2019-02-11T02:58:10.730Z,99737.62
2019-02-11T03:00:40.467Z,99748.23
2019-02-11T03:03:10.201Z,99754.81
2019-02-11T03:05:42.967Z,99758.20
2019-02-11T03:08:12.698Z,99761.30
2019-02-11T03:10:42.438Z,99772.28
2019-02-11T03:13:12.240Z,99784.41
2019-02-11T03:15:41.949Z,99787.05
2019-02-11T03:18:11.696Z,99789.50
2019-02-11T03:20:41.403Z,99796.60
2019-02-11T03:23:11.139Z,99794.55
2019-02-11T03:25:40.859Z,99811.41
2019-02-11T03:28:10.603Z,99812.22
2019-02-11T03:30:40.336Z,99807.89
2019-02-11T03:33:10.085Z,99815.28
2019-02-11T03:35:39.789Z,99815.63
2019-02-11T03:38:09.535Z,99825.19
2019-02-11T03:40:39.243Z,99829.47
2019-02-11T03:43:08.985Z,99831.11
2019-02-11T03:45:38.706Z,99836.59
2019-02-11T03:48:08.549Z,99850.46
2019-02-11T03:50:38.271Z,99850.11
2019-02-11T03:53:08.014Z,99859.48
2019-02-11T03:55:37.752Z,99869.11
2019-02-11T03:58:07.472Z,99869.39
2019-02-11T04:00:37.370Z,99883.55
2019-02-11T04:03:07.093Z,99890.45
2019-02-11T04:05:36.847Z,99895.71
2019-02-11T04:08:06.578Z,99898.64
2019-02-11T04:10:36.332Z,99909.13
2019-02-11T04:13:06.069Z,99913.07
2019-02-11T04:15:35.887Z,99921.23
2019-02-11T04:18:05.624Z,99926.32
2019-02-11T04:20:35.360Z,99929.31
2019-02-11T04:23:05.157Z,99930.08
2019-02-11T04:25:34.892Z,99936.98
2019-02-11T04:28:04.604Z,99935.34
2019-02-11T04:30:34.350Z,99936.19
2019-02-11T04:33:04.095Z,99946.33
2019-02-11T04:35:33.834Z,99953.47
2019-02-11T04:38:03.557Z,99957.41
2019-02-11T04:40:34.270Z,99968.42
2019-02-11T04:43:03.997Z,99976.27
2019-02-11T04:45:33.732Z,99986.59
2019-02-11T04:48:03.447Z,99989.59
2019-02-11T04:50:34.212Z,99991.75
2019-02-11T04:53:03.925Z,99999.63
2019-02-11T04:55:33.706Z,100001.16
2019-02-11T04:58:03.423Z,100005.48
2019-02-11T05:00:33.144Z,100007.95
2019-02-11T05:03:02.897Z,100013.91
2019-02-11T05:05:32.609Z,100014.09
2019-02-11T05:08:02.361Z,100020.09
2019-02-11T05:10:32.100Z,100027.22
2019-02-11T05:13:01.893Z,100032.11
2019-02-11T05:15:31.585Z,100040.91
2019-02-11T05:18:01.333Z,100038.44
2019-02-11T05:20:31.056Z,100046.18
2019-02-11T05:23:00.851Z,100054.37
2019-02-11T05:25:30.581Z,100064.24
2019-02-11T05:28:00.332Z,100070.20
2019-02-11T05:30:30.089Z,100074.91
2019-02-11T05:32:59.845Z,100070.16
2019-02-11T05:35:29.551Z,100075.25
2019-02-11T05:37:59.371Z,100075.73
2019-02-11T05:40:29.102Z,100079.11
2019-02-11T05:42:58.835Z,100073.12
2019-02-11T05:45:28.581Z,100086.74
2019-02-11T05:47:58.310Z,100099.72
2019-02-11T05:50:28.081Z,100098.81
2019-02-11T05:52:57.797Z,100097.41
2019-02-11T05:55:27.558Z,100100.09
2019-02-11T05:57:57.278Z,100107.80
2019-02-11T06:00:27.024Z,100106.77
2019-02-11T06:02:56.750Z,100109.84
2019-02-11T06:05:26.481Z,100120.50
2019-02-11T06:07:56.266Z,100124.48
2019-02-11T06:10:26.033Z,100130.70
2019-02-11T06:12:55.758Z,100136.73
2019-02-11T06:15:25.521Z,100149.22
2019-02-11T06:17:55.267Z,100148.56
2019-02-11T06:20:25.024Z,100159.88
2019-02-11T06:22:54.786Z,100161.92
2019-02-11T06:25:24.541Z,100165.75
2019-02-11T06:27:54.279Z,100179.52
2019-02-11T06:30:24.052Z,100188.34
2019-02-11T06:32:53.767Z,100182.09
2019-02-11T06:35:23.526Z,100192.21
2019-02-11T06:37:53.271Z,100199.85
2019-02-11T06:40:23.016Z,100205.23
2019-02-11T06:42:52.747Z,100202.19
2019-02-11T06:45:22.492Z,100214.75
2019-02-11T06:47:52.235Z,100219.08
2019-02-11T06:50:21.966Z,100222.74
2019-02-11T06:52:51.723Z,100225.28
2019-02-11T06:55:21.443Z,100237.76
2019-02-11T06:57:51.192Z,100245.78
2019-02-11T07:00:20.924Z,100249.28
2019-02-11T07:02:50.666Z,100259.39
2019-02-11T07:05:20.387Z,100259.59
2019-02-11T07:07:50.136Z,100261.72
2019-02-11T07:10:19.860Z,100276.78
2019-02-11T07:12:49.613Z,100283.30
2019-02-11T07:15:22.063Z,100277.66
2019-02-11T07:17:50.886Z,100284.31
2019-02-11T07:20:20.611Z,100296.74
2019-02-11T07:22:50.340Z,100292.88
2019-02-11T07:25:20.089Z,100307.19
2019-02-11T07:27:49.813Z,100303.86
2019-02-11T07:30:19.568Z,100306.39
2019-02-11T07:32:49.275Z,100322.45
2019-02-11T07:35:19.036Z,100328.64
2019-02-11T07:37:48.778Z,100334.22
2019-02-11T07:40:18.534Z,100334.27
2019-02-11T07:42:49.923Z,100338.95
2019-02-11T07:45:29.840Z,100349.14
2019-02-11T07:47:55.552Z,100346.56
2019-02-11T07:50:26.378Z,100366.65
2019-02-11T07:52:56.107Z,100373.97
2019-02-11T07:55:25.871Z,100384.75
2019-02-11T07:57:55.630Z,100387.39
2019-02-11T08:00:25.462Z,100394.03
2019-02-11T08:02:55.198Z,100390.82
2019-02-11T08:05:24.927Z,100403.52
2019-02-11T08:07:54.677Z,100408.02
2019-02-11T08:10:24.393Z,100405.17
2019-02-11T08:12:54.135Z,100419.95
2019-02-11T08:15:23.866Z,100414.02
2019-02-11T08:17:53.624Z,100427.88
2019-02-11T08:20:23.356Z,100430.78
2019-02-11T08:22:53.126Z,100440.30
2019-02-11T08:25:22.889Z,100443.10
2019-02-11T08:27:52.616Z,100447.93
2019-02-11T08:30:22.366Z,100459.31
2019-02-11T08:32:52.104Z,100467.27
2019-02-11T08:35:21.845Z,100474.27
2019-02-11T08:37:51.573Z,100472.42
2019-02-11T08:40:21.338Z,100474.22
2019-02-11T08:42:54.025Z,100467.95
2019-02-11T08:45:23.895Z,100475.61
2019-02-11T08:47:53.621Z,100484.03
2019-02-11T08:50:23.369Z,100485.95
2019-02-11T08:52:53.139Z,100495.95
2019-02-11T08:55:22.878Z,100492.41
2019-02-11T08:57:52.618Z,100504.42
2019-02-11T09:00:22.351Z,100506.53
2019-02-11T09:02:52.194Z,100505.38
2019-02-11T09:05:21.926Z,100507.69
2019-02-11T09:07:51.679Z,100521.69
2019-02-11T09:10:21.419Z,100516.98
2019-02-11T09:12:51.209Z,100522.78
2019-02-11T09:15:20.951Z,100522.15
2019-02-11T09:17:50.725Z,100528.27
2019-02-11T09:20:20.461Z,100524.64
2019-02-11T09:22:50.216Z,100537.77
2019-02-11T09:25:20.018Z,100538.08
2019-02-11T09:27:49.752Z,100538.67
2019-02-11T09:30:19.498Z,100542.72
2019-02-11T09:32:49.344Z,100555.94
2019-02-11T09:35:19.155Z,100564.51
2019-02-11T09:37:48.903Z,100566.77
2019-02-11T09:40:18.639Z,100570.53
2019-02-11T09:42:48.377Z,100569.28
2019-02-11T09:45:26.254Z,100576.92
2019-02-11T09:47:56.015Z,100595.70
2019-02-11T09:50:31.702Z,100595.95
2019-02-11T09:53:01.805Z,100599.63
2019-02-11T09:55:33.402Z,100600.23
2019-02-11T09:58:03.272Z,100611.59
2019-02-11T10:00:33.002Z,100625.45
2019-02-11T10:03:02.758Z,100623.45
2019-02-11T10:05:32.511Z,100624.22
2019-02-11T10:08:02.244Z,100628.69
2019-02-11T10:10:32.088Z,100625.80
2019-02-11T10:13:01.826Z,100637.97
2019-02-11T10:15:31.581Z,100643.59
2019-02-11T10:18:01.314Z,100641.29
2019-02-11T10:20:31.047Z,100646.40
2019-02-11T10:23:00.800Z,100655.41
2019-02-11T10:25:31.091Z,100661.20
2019-02-11T10:28:03.732Z,100669.45
2019-02-11T10:30:33.469Z,100678.25
2019-02-11T10:33:03.219Z,100678.42
2019-02-11T10:35:32.987Z,100676.68
2019-02-11T10:38:03.184Z,100687.55
2019-02-11T10:40:32.948Z,100688.09
2019-02-11T10:43:02.689Z,100698.03
2019-02-11T10:45:36.691Z,100704.70
2019-02-11T10:48:03.873Z,100706.62
2019-02-11T10:50:33.646Z,100703.24
2019-02-11T10:53:03.381Z,100718.83
2019-02-11T10:55:33.192Z,100716.38
2019-02-11T10:58:02.963Z,100724.94
2019-02-11T11:00:32.925Z,100733.72
2019-02-11T11:03:02.734Z,100722.23
2019-02-11T11:05:32.452Z,100733.86
2019-02-11T11:08:02.185Z,100732.64
2019-02-11T11:10:39.402Z,100738.14
2019-02-11T11:13:12.121Z,100744.80
2019-02-11T11:15:41.865Z,100754.02
2019-02-11T11:18:11.593Z,100758.38
2019-02-11T11:20:41.429Z,100752.03
2019-02-11T11:23:11.169Z,100761.55
2019-02-11T11:25:40.927Z,100754.31
2019-02-11T11:28:10.692Z,100761.45
2019-02-11T11:30:40.427Z,100752.15
2019-02-11T11:33:10.178Z,100757.43
2019-02-11T11:35:39.913Z,100750.66
2019-02-11T11:38:09.699Z,100752.61
2019-02-11T11:40:39.432Z,100752.91
2019-02-11T11:43:09.177Z,100789.86
2019-02-11T11:45:38.899Z,100844.88
2019-02-11T11:48:08.655Z,100844.56
2019-02-11T11:50:38.390Z,100844.83
2019-02-11T11:53:09.100Z,100844.75
2019-02-11T11:55:38.849Z,100835.70
2019-02-11T11:58:08.712Z,100845.64
2019-02-11T12:00:38.431Z,100847.45
2019-02-11T12:03:08.201Z,100859.89
2019-02-11T12:05:37.974Z,100864.30
2019-02-11T12:08:07.704Z,100865.00
2019-02-11T12:10:37.544Z,100863.10
2019-02-11T12:13:21.571Z,100873.34
2019-02-11T12:15:38.937Z,100871.07
2019-02-11T12:18:08.664Z,100866.27
2019-02-11T12:20:38.403Z,100882.97
2019-02-11T12:23:08.154Z,100890.17
2019-02-11T12:25:37.883Z,100884.11
2019-02-11T12:28:07.649Z,100889.61
2019-02-11T12:30:37.400Z,100893.31
2019-02-11T12:33:07.146Z,100889.65
2019-02-11T12:35:36.944Z,100895.59
2019-02-11T12:38:06.664Z,100901.02
2019-02-11T12:40:36.527Z,100898.71
2019-02-11T12:43:06.237Z,100911.23
2019-02-11T12:45:36.139Z,100909.09
2019-02-11T12:48:05.855Z,100919.98
2019-02-11T12:50:35.609Z,100917.45
2019-02-11T12:53:05.349Z,100919.36
2019-02-11T12:55:35.170Z,100933.23
2019-02-11T12:58:04.912Z,100931.02
2019-02-11T13:00:34.684Z,100943.15
2019-02-11T13:03:04.595Z,100958.61
2019-02-11T13:05:45.260Z,100957.80
2019-02-11T13:08:05.846Z,100965.13
2019-02-11T13:10:35.606Z,100970.39
2019-02-11T13:13:06.741Z,100986.83
2019-02-11T13:15:59.041Z,100982.26
2019-02-11T13:18:08.545Z,100997.70
2019-02-11T13:20:38.413Z,100991.77
2019-02-11T13:23:08.132Z,101005.10
2019-02-11T13:25:37.913Z,101011.23
2019-02-11T13:28:07.627Z,101000.55
2019-02-11T13:30:37.423Z,101003.90
2019-02-11T13:33:07.234Z,101006.39
2019-02-11T13:35:36.979Z,101005.41
2019-02-11T13:38:07.782Z,101008.25
2019-02-11T13:40:37.575Z,101005.12
2019-02-11T13:43:07.370Z,101000.73
2019-02-11T13:45:37.124Z,101008.72
2019-02-11T13:48:06.885Z,101020.41
2019-02-11T13:50:36.660Z,101028.38
2019-02-11T13:53:06.391Z,101031.88
2019-02-11T13:55:37.131Z,101039.68
2019-02-11T13:58:07.525Z,101050.67
2019-02-11T14:00:37.289Z,101057.77
2019-02-11T14:03:09.967Z,101063.38
2019-02-11T14:05:39.788Z,101074.97
2019-02-11T14:08:09.550Z,101079.05
2019-02-11T14:10:39.340Z,101080.94
2019-02-11T14:13:09.121Z,101083.19
2019-02-11T14:15:38.865Z,101088.06
2019-02-11T14:18:14.252Z,101091.91
2019-02-11T14:20:41.861Z,101099.77
2019-02-11T14:23:11.665Z,101114.48
2019-02-11T14:25:45.918Z,101120.66
2019-02-11T14:28:12.928Z,101130.23
2019-02-11T14:30:42.655Z,101132.55
2019-02-11T14:33:12.456Z,101146.05
2019-02-11T14:35:42.380Z,101148.48
2019-02-11T14:38:12.353Z,101153.09
2019-02-11T14:40:42.326Z,101158.91
2019-02-11T14:43:12.240Z,101163.00
2019-02-11T14:45:42.036Z,101172.16
2019-02-11T14:48:26.904Z,101163.11
2019-02-11T14:50:43.488Z,101167.72
2019-02-11T14:53:13.298Z,101168.45
2019-02-11T14:55:43.222Z,101173.00
2019-02-11T14:58:12.959Z,101181.60
2019-02-11T15:00:42.762Z,101184.29
2019-02-11T15:03:12.512Z,101195.96
2019-02-11T15:05:42.255Z,101200.49
2019-02-11T15:08:12.032Z,101213.98
2019-02-11T15:10:42.649Z,101219.32
2019-02-11T15:13:12.515Z,101223.82
2019-02-11T15:15:42.298Z,101244.56
2019-02-11T15:18:12.998Z,101234.70
2019-02-11T15:20:42.755Z,101239.06
2019-02-11T15:23:12.478Z,101238.00
2019-02-11T15:25:42.231Z,101236.61
2019-02-11T15:28:11.995Z,101238.78
2019-02-11T15:30:41.764Z,101241.68
2019-02-11T15:33:11.494Z,101250.83
2019-02-11T15:35:41.283Z,101261.31
2019-02-11T15:38:11.001Z,101277.59
2019-02-11T15:40:40.871Z,101286.27
2019-02-11T15:43:10.619Z,101301.27
2019-02-11T15:45:40.349Z,101309.51
2019-02-11T15:48:10.102Z,101319.31
2019-02-11T15:50:39.923Z,101316.36
2019-02-11T15:53:09.690Z,101333.91
2019-02-11T15:55:39.433Z,101346.67
2019-02-11T15:58:09.180Z,101344.77
2019-02-11T16:00:38.927Z,101349.38
2019-02-11T16:03:08.670Z,101367.39
2019-02-11T16:05:38.426Z,101366.42
2019-02-11T16:08:08.183Z,101380.63
2019-02-11T16:10:37.915Z,101384.05
2019-02-11T16:13:07.693Z,101389.59
2019-02-11T16:15:37.438Z,101399.81
2019-02-11T16:18:07.208Z,101410.88
2019-02-11T16:20:36.956Z,101427.39
2019-02-11T16:23:06.727Z,101436.59
2019-02-11T16:25:37.552Z,101445.85
2019-02-11T16:28:07.288Z,101459.28
2019-02-11T16:30:37.064Z,101457.01
2019-02-11T16:33:06.794Z,101472.70
2019-02-11T16:35:36.549Z,101480.59
2019-02-11T16:38:06.299Z,101476.70
2019-02-11T16:40:36.039Z,101485.77
2019-02-11T16:43:05.833Z,101499.47
2019-02-11T16:45:35.592Z,101505.27
2019-02-11T16:48:05.508Z,101514.02
2019-02-11T16:50:35.337Z,101525.45
2019-02-11T16:53:05.068Z,101526.33
2019-02-11T16:55:34.802Z,101540.84
2019-02-11T16:58:04.549Z,101537.48
2019-02-11T17:00:34.294Z,101550.95
2019-02-11T17:03:04.041Z,101560.11
2019-02-11T17:05:33.797Z,101570.28
2019-02-11T17:08:03.537Z,101575.28
2019-02-11T17:10:33.303Z,101580.94
2019-02-11T17:13:03.048Z,101590.27
2019-02-11T17:15:32.795Z,101596.15
2019-02-11T17:18:02.557Z,101615.41
2019-02-11T17:20:32.300Z,101614.44
2019-02-11T17:23:02.061Z,101621.95
2019-02-11T17:25:31.845Z,101632.44
2019-02-11T17:28:01.520Z,101641.97
2019-02-11T17:30:37.002Z,101651.27
2019-02-11T17:33:06.755Z,101665.80
2019-02-11T17:35:36.498Z,101669.25
2019-02-11T17:38:06.315Z,101678.91
2019-02-11T17:40:36.062Z,101675.11
2019-02-11T17:43:05.815Z,101685.55
2019-02-11T17:45:35.549Z,101690.97
2019-02-11T17:48:05.378Z,101691.91
2019-02-11T17:50:35.120Z,101694.14
2019-02-11T17:53:08.270Z,101697.19
2019-02-11T17:55:37.997Z,101687.91
2019-02-11T17:58:07.782Z,101699.09
2019-02-11T18:00:42.379Z,101705.88
2019-02-11T18:03:12.140Z,101709.02
2019-02-11T18:05:41.888Z,101710.29
2019-02-11T18:08:11.841Z,101715.64
2019-02-11T18:10:41.598Z,101718.45
2019-02-11T18:13:11.367Z,101724.44
2019-02-11T18:15:41.133Z,101719.38
2019-02-11T18:18:11.343Z,101718.12
2019-02-11T18:20:41.258Z,101711.95
2019-02-11T18:23:11.093Z,101717.86
2019-02-11T18:25:40.924Z,101719.93
2019-02-11T18:28:10.703Z,101732.92
2019-02-11T18:30:40.511Z,101739.72
2019-02-11T18:33:11.489Z,101737.61
2019-02-11T18:35:41.216Z,101742.37
2019-02-11T18:38:10.971Z,101748.66
2019-02-11T18:40:40.765Z,101746.29
2019-02-11T18:43:10.509Z,101742.01
2019-02-11T18:45:40.352Z,101751.65
2019-02-11T18:48:10.214Z,101757.06
2019-02-11T18:50:40.120Z,101759.66
2019-02-11T18:53:09.941Z,101762.63
2019-02-11T18:55:39.702Z,101762.92
2019-02-11T18:58:09.434Z,101771.78
2019-02-11T19:00:40.155Z,101772.67
2019-02-11T19:03:09.917Z,101780.53
2019-02-11T19:05:39.675Z,101779.33
2019-02-11T19:08:09.452Z,101785.87
2019-02-11T19:10:39.199Z,101790.56
2019-02-11T19:13:09.120Z,101792.63
2019-02-11T19:15:38.871Z,101795.22
2019-02-11T19:18:09.521Z,101798.09
2019-02-11T19:20:39.257Z,101807.33
2019-02-11T19:23:09.111Z,101804.35
2019-02-11T19:25:38.854Z,101802.17
2019-02-11T19:28:08.587Z,101808.82
2019-02-11T19:30:38.359Z,101815.61
2019-02-11T19:33:08.143Z,101818.70
2019-02-11T19:35:37.859Z,101817.24
2019-02-11T19:38:07.652Z,101824.18
2019-02-11T19:40:37.376Z,101820.89
2019-02-11T19:43:07.156Z,101824.55
2019-02-11T19:45:36.997Z,101833.56
2019-02-11T19:48:06.925Z,101834.80
2019-02-11T19:50:36.841Z,101830.20
2019-02-11T19:53:06.747Z,101835.56
2019-02-11T19:55:36.568Z,101844.72
2019-02-11T19:58:06.340Z,101848.13
2019-02-11T20:00:36.172Z,101851.28
2019-02-11T20:03:05.966Z,101857.34
2019-02-11T20:05:35.794Z,101850.37
2019-02-11T20:08:06.621Z,101847.59
2019-02-11T20:10:36.558Z,101845.09
2019-02-11T20:13:06.364Z,101843.80
2019-02-11T20:15:36.147Z,101835.94
2019-02-11T20:18:06.012Z,101830.34
2019-02-11T20:20:35.868Z,101833.84
2019-02-11T20:23:05.630Z,101830.78
2019-02-11T20:25:35.360Z,101847.84
2019-02-11T20:28:05.196Z,101842.02
2019-02-11T20:30:35.035Z,101849.25
2019-02-11T20:33:04.860Z,101857.67
2019-02-11T20:35:34.630Z,101854.00
2019-02-11T20:38:04.355Z,101857.55
2019-02-11T20:40:34.139Z,101877.67
2019-02-11T20:43:04.131Z,101881.88
2019-02-11T20:45:34.010Z,101876.34
2019-02-11T20:48:03.801Z,101898.00
2019-02-11T20:50:33.727Z,101898.56
2019-02-11T20:53:03.551Z,101908.48
2019-02-11T20:55:33.306Z,101922.67
2019-02-11T20:58:03.084Z,101926.95
2019-02-11T21:00:32.877Z,101929.17
2019-02-11T21:03:08.523Z,101928.64
2019-02-11T21:05:34.404Z,101936.16
2019-02-11T21:08:04.134Z,101942.23
2019-02-11T21:10:33.891Z,101947.12
2019-02-11T21:13:03.644Z,101957.52
2019-02-11T21:15:33.409Z,101950.30
2019-02-11T21:18:03.164Z,101965.46
2019-02-11T21:20:39.100Z,101964.69
2019-02-11T21:23:10.271Z,101964.55
2019-02-11T21:25:40.049Z,101968.76
2019-02-11T21:28:09.763Z,101974.49
2019-02-11T21:30:39.596Z,101981.01
2019-02-11T21:33:09.352Z,101984.57
2019-02-11T21:35:39.122Z,101992.80
2019-02-11T21:38:08.898Z,101989.66
2019-02-11T21:40:38.659Z,101987.38
2019-02-11T21:43:08.418Z,101995.13
2019-02-11T21:45:38.145Z,101985.13
2019-02-11T21:48:07.881Z,101976.37
2019-02-11T21:50:37.617Z,101978.40
2019-02-11T21:53:07.399Z,101982.08
2019-02-11T21:55:37.125Z,101991.19
2019-02-11T21:58:06.882Z,101992.75
2019-02-11T22:00:36.633Z,101993.08
2019-02-11T22:03:06.394Z,101991.48
2019-02-11T22:05:36.139Z,101993.38
2019-02-11T22:08:05.956Z,101989.51
2019-02-11T22:10:35.678Z,102002.61
2019-02-11T22:13:05.913Z,101999.75
2019-02-11T22:15:35.670Z,102008.09
2019-02-11T22:18:05.409Z,102007.97
2019-02-11T22:20:35.162Z,102002.59
2019-02-11T22:23:05.914Z,102002.81
2019-02-11T22:25:36.728Z,102001.92
2019-02-11T22:28:06.497Z,102024.80
2019-02-11T22:30:36.249Z,102022.03
2019-02-11T22:33:06.017Z,102021.97
2019-02-11T22:35:35.807Z,102015.09
2019-02-11T22:38:05.540Z,102026.63
2019-02-11T22:40:35.279Z,102029.84
2019-02-11T22:43:05.250Z,102028.97
2019-02-11T22:45:35.090Z,102034.12
2019-02-11T22:48:04.845Z,102046.39
2019-02-11T22:50:42.850Z,102048.11
2019-02-11T22:53:06.026Z,102047.49
2019-02-11T22:55:35.788Z,102043.54
2019-02-11T22:58:05.504Z,102044.37
2019-02-11T23:00:49.138Z,102045.17
2019-02-11T23:03:19.016Z,102040.77
2019-02-11T23:05:48.771Z,102049.04
2019-02-11T23:08:18.608Z,102054.87
2019-02-11T23:10:48.389Z,102046.58
2019-02-11T23:13:18.158Z,102043.16
2019-02-11T23:15:47.895Z,102035.58
2019-02-11T23:18:17.625Z,102038.69
2019-02-11T23:20:52.191Z,102035.61
2019-02-11T23:23:18.902Z,102044.73
2019-02-11T23:25:48.815Z,102057.73
2019-02-11T23:28:18.554Z,102053.48
2019-02-11T23:30:48.285Z,102056.05
2019-02-11T23:33:18.059Z,102058.30
2019-02-11T23:35:47.808Z,102068.61
2019-02-11T23:38:17.632Z,102077.28
2019-02-11T23:40:47.429Z,102084.53
2019-02-11T23:43:17.298Z,102086.31
2019-02-11T23:45:47.029Z,102081.73
2019-02-11T23:48:16.841Z,102089.73
2019-02-11T23:50:46.585Z,102103.97
2019-02-11T23:53:16.324Z,102098.22
2019-02-11T23:55:46.130Z,102102.67
2019-02-11T23:58:15.882Z,102101.02
